sensor_id;sensor_type;location;lat;lon;timestamp;P1;durP1;ratioP1;P2;durP2;ratioP2
5465;SDS011;2755;50.728;7.108;2022-12-31T00:00:51;0.60;;;0.40;;
5465;SDS011;2755;50.728;7.108;2022-12-31T00:03:16;0.67;;;0.50;;
5465;SDS011;2755;50.728;7.108;2022-12-31T00:05:42;1.40;;;0.53;;
5465;SDS011;2755;50.728;7.108;2022-12-31T00:08:07;1.03;;;0.70;;
5465;SDS011;2755;50.728;7.108;2022-12-31T00:10:33;1.23;;;0.63;;
5465;SDS011;2755;50.728;7.108;2022-12-31T00:13:05;0.80;;;0.50;;
5465;SDS011;2755;50.728;7.108;2022-12-31T00:15:31;0.60;;;0.50;;
5465;SDS011;2755;50.728;7.108;2022-12-31T00:17:56;0.70;;;0.40;;
5465;SDS011;2755;50.728;7.108;2022-12-31T00:20:22;0.60;;;0.50;;
5465;SDS011;2755;50.728;7.108;2022-12-31T00:22:47;1.40;;;0.60;;
5465;SDS011;2755;50.728;7.108;2022-12-31T00:25:13;0.70;;;0.60;;
5465;SDS011;2755;50.728;7.108;2022-12-31T00:27:38;0.70;;;0.50;;
5465;SDS011;2755;50.728;7.108;2022-12-31T00:30:04;0.80;;;0.57;;
5465;SDS011;2755;50.728;7.108;2022-12-31T00:32:30;0.67;;;0.43;;
5465;SDS011;2755;50.728;7.108;2022-12-31T00:34:56;0.60;;;0.40;;
5465;SDS011;2755;50.728;7.108;2022-12-31T00:37:21;6.10;;;0.60;;
5465;SDS011;2755;50.728;7.108;2022-12-31T00:39:47;0.70;;;0.60;;
5465;SDS011;2755;50.728;7.108;2022-12-31T00:42:12;0.60;;;0.40;;
5465;SDS011;2755;50.728;7.108;2022-12-31T00:44:38;1.07;;;0.60;;
5465;SDS011;2755;50.728;7.108;2022-12-31T00:47:03;0.60;;;0.40;;
5465;SDS011;2755;50.728;7.108;2022-12-31T00:49:29;0.67;;;0.40;;
5465;SDS011;2755;50.728;7.108;2022-12-31T00:51:54;0.60;;;0.40;;
5465;SDS011;2755;50.728;7.108;2022-12-31T00:54:20;1.60;;;0.40;;
5465;SDS011;2755;50.728;7.108;2022-12-31T00:56:45;0.80;;;0.40;;
5465;SDS011;2755;50.728;7.108;2022-12-31T00:59:11;1.80;;;0.40;;
5465;SDS011;2755;50.728;7.108;2022-12-31T01:01:37;0.60;;;0.40;;
5465;SDS011;2755;50.728;7.108;2022-12-31T01:04:05;0.80;;;0.40;;
5465;SDS011;2755;50.728;7.108;2022-12-31T01:06:33;0.60;;;0.40;;
5465;SDS011;2755;50.728;7.108;2022-12-31T01:08:59;0.60;;;0.40;;
5465;SDS011;2755;50.728;7.108;2022-12-31T01:11:25;0.70;;;0.40;;
5465;SDS011;2755;50.728;7.108;2022-12-31T01:16:59;0.70;;;0.40;;
5465;SDS011;2755;50.728;7.108;2022-12-31T01:19:19;0.70;;;0.40;;
5465;SDS011;2755;50.728;7.108;2022-12-31T01:21:47;0.60;;;0.40;;
5465;SDS011;2755;50.728;7.108;2022-12-31T01:24:13;0.90;;;0.40;;
5465;SDS011;2755;50.728;7.108;2022-12-31T01:26:40;0.60;;;0.40;;
5465;SDS011;2755;50.728;7.108;2022-12-31T01:29:06;0.50;;;0.40;;
5465;SDS011;2755;50.728;7.108;2022-12-31T01:31:33;2.80;;;0.40;;
5465;SDS011;2755;50.728;7.108;2022-12-31T01:33:59;0.50;;;0.30;;
5465;SDS011;2755;50.728;7.108;2022-12-31T01:36:26;0.60;;;0.40;;
5465;SDS011;2755;50.728;7.108;2022-12-31T01:38:54;0.60;;;0.40;;
5465;SDS011;2755;50.728;7.108;2022-12-31T01:41:22;0.57;;;0.40;;
5465;SDS011;2755;50.728;7.108;2022-12-31T01:43:52;0.60;;;0.40;;
5465;SDS011;2755;50.728;7.108;2022-12-31T01:46:31;0.60;;;0.40;;
5465;SDS011;2755;50.728;7.108;2022-12-31T01:49:07;0.50;;;0.30;;
5465;SDS011;2755;50.728;7.108;2022-12-31T01:51:38;0.50;;;0.40;;
5465;SDS011;2755;50.728;7.108;2022-12-31T01:54:07;0.60;;;0.30;;
5465;SDS011;2755;50.728;7.108;2022-12-31T01:56:34;2.70;;;0.30;;
5465;SDS011;2755;50.728;7.108;2022-12-31T01:59:02;0.50;;;0.30;;
5465;SDS011;2755;50.728;7.108;2022-12-31T02:01:31;0.50;;;0.30;;
5465;SDS011;2755;50.728;7.108;2022-12-31T02:03:57;0.57;;;0.33;;
5465;SDS011;2755;50.728;7.108;2022-12-31T02:09:26;0.50;;;0.40;;
5465;SDS011;2755;50.728;7.108;2022-12-31T02:11:53;0.63;;;0.40;;
5465;SDS011;2755;50.728;7.108;2022-12-31T02:14:26;1.33;;;0.40;;
5465;SDS011;2755;50.728;7.108;2022-12-31T02:17:04;2.50;;;0.40;;
5465;SDS011;2755;50.728;7.108;2022-12-31T02:20:01;0.60;;;0.40;;
5465;SDS011;2755;50.728;7.108;2022-12-31T02:31:35;0.73;;;0.43;;
5465;SDS011;2755;50.728;7.108;2022-12-31T02:36:42;1.00;;;0.40;;
5465;SDS011;2755;50.728;7.108;2022-12-31T02:39:09;2.47;;;0.40;;
5465;SDS011;2755;50.728;7.108;2022-12-31T02:41:37;0.60;;;0.40;;
5465;SDS011;2755;50.728;7.108;2022-12-31T02:58:13;0.60;;;0.40;;
5465;SDS011;2755;50.728;7.108;2022-12-31T03:01:22;0.53;;;0.30;;
5465;SDS011;2755;50.728;7.108;2022-12-31T03:04:10;0.70;;;0.40;;
5465;SDS011;2755;50.728;7.108;2022-12-31T03:06:56;1.33;;;0.60;;
5465;SDS011;2755;50.728;7.108;2022-12-31T03:09:24;0.67;;;0.50;;
5465;SDS011;2755;50.728;7.108;2022-12-31T03:11:50;0.60;;;0.40;;
5465;SDS011;2755;50.728;7.108;2022-12-31T03:14:34;0.60;;;0.30;;
5465;SDS011;2755;50.728;7.108;2022-12-31T03:17:00;0.57;;;0.37;;
5465;SDS011;2755;50.728;7.108;2022-12-31T03:19:25;0.60;;;0.40;;
5465;SDS011;2755;50.728;7.108;2022-12-31T03:22:11;0.60;;;0.40;;
5465;SDS011;2755;50.728;7.108;2022-12-31T03:24:53;1.23;;;0.50;;
5465;SDS011;2755;50.728;7.108;2022-12-31T03:27:38;0.50;;;0.30;;
5465;SDS011;2755;50.728;7.108;2022-12-31T03:30:04;0.60;;;0.40;;
5465;SDS011;2755;50.728;7.108;2022-12-31T03:32:30;0.60;;;0.40;;
5465;SDS011;2755;50.728;7.108;2022-12-31T03:34:56;0.50;;;0.30;;
5465;SDS011;2755;50.728;7.108;2022-12-31T03:37:21;5.43;;;0.43;;
5465;SDS011;2755;50.728;7.108;2022-12-31T03:39:47;0.70;;;0.40;;
5465;SDS011;2755;50.728;7.108;2022-12-31T03:42:13;0.57;;;0.33;;
5465;SDS011;2755;50.728;7.108;2022-12-31T03:44:38;0.60;;;0.40;;
5465;SDS011;2755;50.728;7.108;2022-12-31T03:47:04;0.70;;;0.30;;
5465;SDS011;2755;50.728;7.108;2022-12-31T03:49:29;0.90;;;0.60;;
5465;SDS011;2755;50.728;7.108;2022-12-31T03:51:55;0.60;;;0.40;;
5465;SDS011;2755;50.728;7.108;2022-12-31T03:54:20;0.70;;;0.40;;
5465;SDS011;2755;50.728;7.108;2022-12-31T03:56:46;0.50;;;0.30;;
5465;SDS011;2755;50.728;7.108;2022-12-31T03:59:12;0.90;;;0.33;;
5465;SDS011;2755;50.728;7.108;2022-12-31T04:01:37;0.60;;;0.30;;
5465;SDS011;2755;50.728;7.108;2022-12-31T04:04:03;0.57;;;0.40;;
5465;SDS011;2755;50.728;7.108;2022-12-31T04:06:28;3.33;;;0.40;;
5465;SDS011;2755;50.728;7.108;2022-12-31T04:08:54;1.03;;;0.40;;
5465;SDS011;2755;50.728;7.108;2022-12-31T04:11:19;0.70;;;0.40;;
5465;SDS011;2755;50.728;7.108;2022-12-31T04:13:45;0.60;;;0.37;;
5465;SDS011;2755;50.728;7.108;2022-12-31T04:16:11;0.90;;;0.50;;
5465;SDS011;2755;50.728;7.108;2022-12-31T04:18:36;0.70;;;0.50;;
5465;SDS011;2755;50.728;7.108;2022-12-31T04:21:02;0.57;;;0.40;;
5465;SDS011;2755;50.728;7.108;2022-12-31T04:23:29;0.50;;;0.30;;
5465;SDS011;2755;50.728;7.108;2022-12-31T04:25:54;0.70;;;0.40;;
5465;SDS011;2755;50.728;7.108;2022-12-31T04:28:20;0.60;;;0.40;;
5465;SDS011;2755;50.728;7.108;2022-12-31T04:30:45;0.57;;;0.40;;
5465;SDS011;2755;50.728;7.108;2022-12-31T04:33:11;2.10;;;0.50;;
5465;SDS011;2755;50.728;7.108;2022-12-31T04:35:37;0.70;;;0.40;;
5465;SDS011;2755;50.728;7.108;2022-12-31T04:38:02;0.60;;;0.40;;
5465;SDS011;2755;50.728;7.108;2022-12-31T04:40:28;0.60;;;0.40;;
5465;SDS011;2755;50.728;7.108;2022-12-31T04:42:54;2.77;;;0.50;;
5465;SDS011;2755;50.728;7.108;2022-12-31T04:45:19;0.60;;;0.40;;
5465;SDS011;2755;50.728;7.108;2022-12-31T04:47:45;0.70;;;0.50;;
5465;SDS011;2755;50.728;7.108;2022-12-31T04:50:10;3.13;;;0.87;;
5465;SDS011;2755;50.728;7.108;2022-12-31T04:52:36;0.80;;;0.40;;
5465;SDS011;2755;50.728;7.108;2022-12-31T04:55:02;0.90;;;0.40;;
5465;SDS011;2755;50.728;7.108;2022-12-31T04:57:28;1.50;;;0.50;;
5465;SDS011;2755;50.728;7.108;2022-12-31T04:59:54;1.20;;;0.50;;
5465;SDS011;2755;50.728;7.108;2022-12-31T05:02:20;0.70;;;0.50;;
5465;SDS011;2755;50.728;7.108;2022-12-31T05:04:45;2.10;;;0.50;;
5465;SDS011;2755;50.728;7.108;2022-12-31T05:07:11;2.00;;;0.50;;
5465;SDS011;2755;50.728;7.108;2022-12-31T05:09:36;0.60;;;0.40;;
5465;SDS011;2755;50.728;7.108;2022-12-31T05:12:02;2.30;;;0.40;;
5465;SDS011;2755;50.728;7.108;2022-12-31T05:14:27;1.47;;;0.50;;
5465;SDS011;2755;50.728;7.108;2022-12-31T05:16:53;0.70;;;0.50;;
5465;SDS011;2755;50.728;7.108;2022-12-31T05:19:18;0.83;;;0.40;;
5465;SDS011;2755;50.728;7.108;2022-12-31T05:21:44;1.40;;;0.47;;
5465;SDS011;2755;50.728;7.108;2022-12-31T05:24:30;1.03;;;0.63;;
5465;SDS011;2755;50.728;7.108;2022-12-31T05:26:55;4.47;;;0.53;;
5465;SDS011;2755;50.728;7.108;2022-12-31T05:29:21;0.87;;;0.40;;
5465;SDS011;2755;50.728;7.108;2022-12-31T05:31:46;2.50;;;0.50;;
5465;SDS011;2755;50.728;7.108;2022-12-31T05:34:12;1.03;;;0.60;;
5465;SDS011;2755;50.728;7.108;2022-12-31T05:36:37;1.57;;;0.60;;
5465;SDS011;2755;50.728;7.108;2022-12-31T05:39:03;3.97;;;0.50;;
5465;SDS011;2755;50.728;7.108;2022-12-31T05:41:28;1.20;;;0.60;;
5465;SDS011;2755;50.728;7.108;2022-12-31T05:43:54;0.77;;;0.50;;
5465;SDS011;2755;50.728;7.108;2022-12-31T05:46:20;2.80;;;0.60;;
5465;SDS011;2755;50.728;7.108;2022-12-31T05:48:45;3.00;;;0.77;;
5465;SDS011;2755;50.728;7.108;2022-12-31T05:51:11;7.60;;;0.90;;
5465;SDS011;2755;50.728;7.108;2022-12-31T05:53:37;1.07;;;0.60;;
5465;SDS011;2755;50.728;7.108;2022-12-31T05:56:02;2.20;;;0.40;;
5465;SDS011;2755;50.728;7.108;2022-12-31T05:58:28;4.60;;;0.70;;
5465;SDS011;2755;50.728;7.108;2022-12-31T06:00:53;4.70;;;0.80;;
5465;SDS011;2755;50.728;7.108;2022-12-31T06:03:19;2.30;;;0.60;;
5465;SDS011;2755;50.728;7.108;2022-12-31T06:05:44;0.80;;;0.60;;
5465;SDS011;2755;50.728;7.108;2022-12-31T06:08:10;0.70;;;0.50;;
5465;SDS011;2755;50.728;7.108;2022-12-31T06:10:36;1.43;;;0.57;;
5465;SDS011;2755;50.728;7.108;2022-12-31T06:13:02;2.70;;;0.63;;
5465;SDS011;2755;50.728;7.108;2022-12-31T06:15:28;1.73;;;0.70;;
5465;SDS011;2755;50.728;7.108;2022-12-31T06:17:55;2.10;;;0.70;;
5465;SDS011;2755;50.728;7.108;2022-12-31T06:20:20;1.57;;;0.57;;
5465;SDS011;2755;50.728;7.108;2022-12-31T06:22:46;1.50;;;0.50;;
5465;SDS011;2755;50.728;7.108;2022-12-31T06:25:11;1.93;;;0.60;;
5465;SDS011;2755;50.728;7.108;2022-12-31T06:27:37;3.43;;;0.77;;
5465;SDS011;2755;50.728;7.108;2022-12-31T06:30:03;1.93;;;0.70;;
5465;SDS011;2755;50.728;7.108;2022-12-31T06:32:29;2.00;;;0.60;;
5465;SDS011;2755;50.728;7.108;2022-12-31T06:34:54;2.93;;;0.60;;
5465;SDS011;2755;50.728;7.108;2022-12-31T06:37:20;1.40;;;0.83;;
5465;SDS011;2755;50.728;7.108;2022-12-31T06:39:46;1.57;;;0.60;;
5465;SDS011;2755;50.728;7.108;2022-12-31T06:42:11;1.13;;;0.63;;
5465;SDS011;2755;50.728;7.108;2022-12-31T06:44:38;1.07;;;0.60;;
5465;SDS011;2755;50.728;7.108;2022-12-31T06:47:03;0.80;;;0.60;;
5465;SDS011;2755;50.728;7.108;2022-12-31T06:49:29;0.80;;;0.60;;
5465;SDS011;2755;50.728;7.108;2022-12-31T06:51:55;1.33;;;0.50;;
5465;SDS011;2755;50.728;7.108;2022-12-31T06:54:21;2.70;;;0.70;;
5465;SDS011;2755;50.728;7.108;2022-12-31T06:56:46;1.10;;;0.80;;
5465;SDS011;2755;50.728;7.108;2022-12-31T06:59:22;2.40;;;0.70;;
5465;SDS011;2755;50.728;7.108;2022-12-31T07:02:02;1.67;;;0.70;;
5465;SDS011;2755;50.728;7.108;2022-12-31T07:07:25;8.13;;;1.10;;
5465;SDS011;2755;50.728;7.108;2022-12-31T07:10:06;3.90;;;0.80;;
5465;SDS011;2755;50.728;7.108;2022-12-31T07:15:45;1.20;;;0.70;;
5465;SDS011;2755;50.728;7.108;2022-12-31T07:18:34;1.77;;;0.70;;
5465;SDS011;2755;50.728;7.108;2022-12-31T07:21:11;1.70;;;0.70;;
5465;SDS011;2755;50.728;7.108;2022-12-31T07:23:39;1.10;;;0.63;;
5465;SDS011;2755;50.728;7.108;2022-12-31T07:26:10;1.03;;;0.70;;
5465;SDS011;2755;50.728;7.108;2022-12-31T07:29:15;1.37;;;0.63;;
5465;SDS011;2755;50.728;7.108;2022-12-31T07:34:24;6.83;;;0.60;;
5465;SDS011;2755;50.728;7.108;2022-12-31T07:37:11;0.80;;;0.57;;
5465;SDS011;2755;50.728;7.108;2022-12-31T07:43:11;2.70;;;0.87;;
5465;SDS011;2755;50.728;7.108;2022-12-31T07:48:40;1.30;;;0.60;;
5465;SDS011;2755;50.728;7.108;2022-12-31T07:51:10;2.10;;;0.70;;
5465;SDS011;2755;50.728;7.108;2022-12-31T07:53:36;1.40;;;0.60;;
5465;SDS011;2755;50.728;7.108;2022-12-31T07:56:02;1.00;;;0.60;;
5465;SDS011;2755;50.728;7.108;2022-12-31T08:01:29;1.73;;;0.50;;
5465;SDS011;2755;50.728;7.108;2022-12-31T08:06:57;1.90;;;0.80;;
5465;SDS011;2755;50.728;7.108;2022-12-31T08:09:28;1.43;;;0.80;;
5465;SDS011;2755;50.728;7.108;2022-12-31T08:12:03;2.20;;;0.77;;
5465;SDS011;2755;50.728;7.108;2022-12-31T08:14:31;2.47;;;0.83;;
5465;SDS011;2755;50.728;7.108;2022-12-31T08:17:03;0.90;;;0.67;;
5465;SDS011;2755;50.728;7.108;2022-12-31T08:19:30;6.53;;;0.90;;
5465;SDS011;2755;50.728;7.108;2022-12-31T08:27:41;1.73;;;0.67;;
5465;SDS011;2755;50.728;7.108;2022-12-31T08:30:20;1.47;;;0.67;;
5465;SDS011;2755;50.728;7.108;2022-12-31T08:33:01;3.37;;;0.70;;
5465;SDS011;2755;50.728;7.108;2022-12-31T08:38:14;2.30;;;0.63;;
5465;SDS011;2755;50.728;7.108;2022-12-31T08:43:51;3.13;;;0.60;;
5465;SDS011;2755;50.728;7.108;2022-12-31T08:49:36;3.40;;;0.77;;
5465;SDS011;2755;50.728;7.108;2022-12-31T08:52:02;5.30;;;0.80;;
5465;SDS011;2755;50.728;7.108;2022-12-31T08:54:28;2.70;;;0.57;;
5465;SDS011;2755;50.728;7.108;2022-12-31T09:02:33;4.00;;;0.63;;
5465;SDS011;2755;50.728;7.108;2022-12-31T09:07:59;1.97;;;0.93;;
5465;SDS011;2755;50.728;7.108;2022-12-31T09:18:37;2.00;;;0.80;;
5465;SDS011;2755;50.728;7.108;2022-12-31T09:21:07;3.00;;;0.80;;
5465;SDS011;2755;50.728;7.108;2022-12-31T09:23:34;5.13;;;0.90;;
5465;SDS011;2755;50.728;7.108;2022-12-31T09:29:02;2.47;;;0.80;;
5465;SDS011;2755;50.728;7.108;2022-12-31T09:31:34;2.60;;;0.70;;
5465;SDS011;2755;50.728;7.108;2022-12-31T09:34:40;7.30;;;0.70;;
5465;SDS011;2755;50.728;7.108;2022-12-31T09:37:05;2.67;;;0.87;;
5465;SDS011;2755;50.728;7.108;2022-12-31T09:39:53;3.23;;;0.77;;
5465;SDS011;2755;50.728;7.108;2022-12-31T09:42:35;1.30;;;0.73;;
5465;SDS011;2755;50.728;7.108;2022-12-31T09:50:53;3.23;;;1.00;;
5465;SDS011;2755;50.728;7.108;2022-12-31T09:56:22;5.70;;;0.83;;
5465;SDS011;2755;50.728;7.108;2022-12-31T10:01:48;1.57;;;0.77;;
5465;SDS011;2755;50.728;7.108;2022-12-31T10:26:36;2.50;;;0.83;;
5465;SDS011;2755;50.728;7.108;2022-12-31T10:32:04;4.13;;;1.10;;
5465;SDS011;2755;50.728;7.108;2022-12-31T10:37:24;1.80;;;0.90;;
5465;SDS011;2755;50.728;7.108;2022-12-31T11:08:37;5.97;;;0.90;;
5465;SDS011;2755;50.728;7.108;2022-12-31T11:11:36;2.03;;;0.70;;
5465;SDS011;2755;50.728;7.108;2022-12-31T11:14:32;5.37;;;1.20;;
5465;SDS011;2755;50.728;7.108;2022-12-31T11:20:08;4.77;;;1.13;;
5465;SDS011;2755;50.728;7.108;2022-12-31T11:23:39;3.50;;;1.00;;
5465;SDS011;2755;50.728;7.108;2022-12-31T11:26:14;5.00;;;0.90;;
5465;SDS011;2755;50.728;7.108;2022-12-31T11:28:34;3.80;;;1.30;;
5465;SDS011;2755;50.728;7.108;2022-12-31T11:31:28;1.53;;;0.80;;
5465;SDS011;2755;50.728;7.108;2022-12-31T11:39:33;2.80;;;1.03;;
5465;SDS011;2755;50.728;7.108;2022-12-31T11:56:24;2.97;;;0.80;;
5465;SDS011;2755;50.728;7.108;2022-12-31T11:58:55;2.80;;;0.80;;
5465;SDS011;2755;50.728;7.108;2022-12-31T12:04:16;3.00;;;0.80;;
5465;SDS011;2755;50.728;7.108;2022-12-31T12:06:41;2.20;;;0.90;;
5465;SDS011;2755;50.728;7.108;2022-12-31T12:09:10;5.60;;;0.90;;
5465;SDS011;2755;50.728;7.108;2022-12-31T12:11:40;2.50;;;0.80;;
5465;SDS011;2755;50.728;7.108;2022-12-31T12:14:29;4.37;;;1.43;;
5465;SDS011;2755;50.728;7.108;2022-12-31T12:17:00;2.93;;;1.30;;
5465;SDS011;2755;50.728;7.108;2022-12-31T12:19:29;2.37;;;1.27;;
5465;SDS011;2755;50.728;7.108;2022-12-31T12:21:56;5.03;;;1.50;;
5465;SDS011;2755;50.728;7.108;2022-12-31T12:26:52;3.10;;;0.90;;
5465;SDS011;2755;50.728;7.108;2022-12-31T12:29:22;6.80;;;1.00;;
5465;SDS011;2755;50.728;7.108;2022-12-31T12:31:53;1.60;;;0.93;;
5465;SDS011;2755;50.728;7.108;2022-12-31T12:34:23;5.13;;;1.03;;
5465;SDS011;2755;50.728;7.108;2022-12-31T12:36:53;3.40;;;1.00;;
5465;SDS011;2755;50.728;7.108;2022-12-31T12:39:24;1.53;;;0.97;;
5465;SDS011;2755;50.728;7.108;2022-12-31T12:42:06;1.80;;;0.83;;
5465;SDS011;2755;50.728;7.108;2022-12-31T12:44:37;2.20;;;0.90;;
5465;SDS011;2755;50.728;7.108;2022-12-31T12:47:04;1.70;;;0.70;;
5465;SDS011;2755;50.728;7.108;2022-12-31T12:49:43;1.53;;;0.80;;
5465;SDS011;2755;50.728;7.108;2022-12-31T12:52:24;2.33;;;0.80;;
5465;SDS011;2755;50.728;7.108;2022-12-31T12:55:14;2.07;;;0.80;;
5465;SDS011;2755;50.728;7.108;2022-12-31T12:57:53;4.27;;;0.80;;
5465;SDS011;2755;50.728;7.108;2022-12-31T13:00:23;5.10;;;0.87;;
5465;SDS011;2755;50.728;7.108;2022-12-31T13:17:23;2.30;;;1.00;;
5465;SDS011;2755;50.728;7.108;2022-12-31T13:22:39;2.20;;;0.83;;
5465;SDS011;2755;50.728;7.108;2022-12-31T13:27:50;2.23;;;0.97;;
5465;SDS011;2755;50.728;7.108;2022-12-31T13:30:22;1.60;;;0.90;;
5465;SDS011;2755;50.728;7.108;2022-12-31T13:32:57;4.33;;;0.97;;
5465;SDS011;2755;50.728;7.108;2022-12-31T13:35:31;4.27;;;1.10;;
5465;SDS011;2755;50.728;7.108;2022-12-31T13:38:03;1.80;;;0.90;;
5465;SDS011;2755;50.728;7.108;2022-12-31T13:40:45;3.57;;;0.83;;
5465;SDS011;2755;50.728;7.108;2022-12-31T13:48:36;1.37;;;0.73;;
5465;SDS011;2755;50.728;7.108;2022-12-31T13:53:52;2.20;;;1.00;;
5465;SDS011;2755;50.728;7.108;2022-12-31T13:56:26;1.10;;;0.87;;
5465;SDS011;2755;50.728;7.108;2022-12-31T13:59:03;1.40;;;1.07;;
5465;SDS011;2755;50.728;7.108;2022-12-31T14:01:37;3.07;;;0.90;;
5465;SDS011;2755;50.728;7.108;2022-12-31T14:04:44;8.20;;;1.60;;
5465;SDS011;2755;50.728;7.108;2022-12-31T14:07:06;3.53;;;1.13;;
5465;SDS011;2755;50.728;7.108;2022-12-31T14:09:54;8.77;;;1.10;;
5465;SDS011;2755;50.728;7.108;2022-12-31T14:15:06;2.53;;;1.07;;
5465;SDS011;2755;50.728;7.108;2022-12-31T14:17:44;3.10;;;1.40;;
5465;SDS011;2755;50.728;7.108;2022-12-31T14:20:30;2.77;;;0.87;;
5465;SDS011;2755;50.728;7.108;2022-12-31T14:23:16;2.67;;;1.00;;
5465;SDS011;2755;50.728;7.108;2022-12-31T14:25:51;1.93;;;1.00;;
5465;SDS011;2755;50.728;7.108;2022-12-31T14:28:32;4.73;;;1.23;;
5465;SDS011;2755;50.728;7.108;2022-12-31T14:31:09;2.10;;;0.90;;
5465;SDS011;2755;50.728;7.108;2022-12-31T14:33:52;4.97;;;1.17;;
5465;SDS011;2755;50.728;7.108;2022-12-31T14:38:55;1.37;;;0.93;;
5465;SDS011;2755;50.728;7.108;2022-12-31T14:44:40;4.17;;;1.00;;
5465;SDS011;2755;50.728;7.108;2022-12-31T14:52:55;2.50;;;0.80;;
5465;SDS011;2755;50.728;7.108;2022-12-31T14:55:32;2.27;;;1.00;;
5465;SDS011;2755;50.728;7.108;2022-12-31T14:57:59;1.90;;;1.03;;
5465;SDS011;2755;50.728;7.108;2022-12-31T15:02:54;4.43;;;1.60;;
5465;SDS011;2755;50.728;7.108;2022-12-31T15:05:24;5.70;;;0.90;;
5465;SDS011;2755;50.728;7.108;2022-12-31T15:10:52;1.47;;;1.13;;
5465;SDS011;2755;50.728;7.108;2022-12-31T15:14:14;3.90;;;1.17;;
5465;SDS011;2755;50.728;7.108;2022-12-31T15:16:19;3.73;;;1.40;;
5465;SDS011;2755;50.728;7.108;2022-12-31T15:24:48;2.50;;;1.00;;
5465;SDS011;2755;50.728;7.108;2022-12-31T15:30:02;5.07;;;1.10;;
5465;SDS011;2755;50.728;7.108;2022-12-31T15:32:39;2.17;;;1.00;;
5465;SDS011;2755;50.728;7.108;2022-12-31T15:35:23;2.80;;;1.20;;
5465;SDS011;2755;50.728;7.108;2022-12-31T15:40:43;2.10;;;1.00;;
5465;SDS011;2755;50.728;7.108;2022-12-31T15:45:49;2.50;;;0.97;;
5465;SDS011;2755;50.728;7.108;2022-12-31T15:48:19;1.00;;;0.80;;
5465;SDS011;2755;50.728;7.108;2022-12-31T15:50:50;2.20;;;1.00;;
5465;SDS011;2755;50.728;7.108;2022-12-31T15:53:26;4.43;;;1.00;;
5465;SDS011;2755;50.728;7.108;2022-12-31T15:55:53;2.67;;;1.03;;
5465;SDS011;2755;50.728;7.108;2022-12-31T15:58:24;1.63;;;0.70;;
5465;SDS011;2755;50.728;7.108;2022-12-31T16:03:35;4.40;;;1.60;;
5465;SDS011;2755;50.728;7.108;2022-12-31T16:06:09;3.47;;;1.17;;
5465;SDS011;2755;50.728;7.108;2022-12-31T16:08:36;1.87;;;1.23;;
5465;SDS011;2755;50.728;7.108;2022-12-31T16:11:04;1.87;;;1.10;;
5465;SDS011;2755;50.728;7.108;2022-12-31T16:13:32;3.83;;;1.40;;
5465;SDS011;2755;50.728;7.108;2022-12-31T16:16:19;3.70;;;1.27;;
5465;SDS011;2755;50.728;7.108;2022-12-31T16:18:47;2.60;;;1.10;;
5465;SDS011;2755;50.728;7.108;2022-12-31T16:21:35;4.40;;;1.00;;
5465;SDS011;2755;50.728;7.108;2022-12-31T16:24:03;9.30;;;1.13;;
5465;SDS011;2755;50.728;7.108;2022-12-31T16:26:50;2.33;;;1.00;;
5465;SDS011;2755;50.728;7.108;2022-12-31T16:29:18;1.10;;;0.90;;
5465;SDS011;2755;50.728;7.108;2022-12-31T16:31:47;3.20;;;1.10;;
5465;SDS011;2755;50.728;7.108;2022-12-31T16:34:15;4.93;;;2.17;;
5465;SDS011;2755;50.728;7.108;2022-12-31T16:36:53;4.23;;;1.17;;
5465;SDS011;2755;50.728;7.108;2022-12-31T16:39:37;4.27;;;1.20;;
5465;SDS011;2755;50.728;7.108;2022-12-31T16:44:41;4.77;;;2.13;;
5465;SDS011;2755;50.728;7.108;2022-12-31T16:47:07;1.87;;;1.40;;
5465;SDS011;2755;50.728;7.108;2022-12-31T16:49:37;7.60;;;1.53;;
5465;SDS011;2755;50.728;7.108;2022-12-31T16:52:04;3.03;;;1.07;;
5465;SDS011;2755;50.728;7.108;2022-12-31T16:54:33;3.50;;;1.17;;
5465;SDS011;2755;50.728;7.108;2022-12-31T16:57:02;5.97;;;1.43;;
5465;SDS011;2755;50.728;7.108;2022-12-31T17:02:08;4.30;;;1.30;;
5465;SDS011;2755;50.728;7.108;2022-12-31T17:04:45;5.50;;;1.20;;
5465;SDS011;2755;50.728;7.108;2022-12-31T17:12:30;2.60;;;1.10;;
5465;SDS011;2755;50.728;7.108;2022-12-31T17:15:02;3.07;;;1.20;;
5465;SDS011;2755;50.728;7.108;2022-12-31T17:17:30;2.10;;;1.17;;
5465;SDS011;2755;50.728;7.108;2022-12-31T17:20:00;8.53;;;1.57;;
5465;SDS011;2755;50.728;7.108;2022-12-31T17:22:29;1.90;;;1.17;;
5465;SDS011;2755;50.728;7.108;2022-12-31T17:25:02;3.73;;;1.40;;
5465;SDS011;2755;50.728;7.108;2022-12-31T17:27:30;14.27;;;1.90;;
5465;SDS011;2755;50.728;7.108;2022-12-31T17:32:44;4.87;;;1.90;;
5465;SDS011;2755;50.728;7.108;2022-12-31T17:40:49;4.17;;;1.30;;
5465;SDS011;2755;50.728;7.108;2022-12-31T17:43:16;2.13;;;1.60;;
5465;SDS011;2755;50.728;7.108;2022-12-31T17:45:44;1.80;;;1.17;;
5465;SDS011;2755;50.728;7.108;2022-12-31T17:48:11;4.60;;;1.60;;
5465;SDS011;2755;50.728;7.108;2022-12-31T17:50:46;2.93;;;1.00;;
5465;SDS011;2755;50.728;7.108;2022-12-31T17:53:12;3.80;;;1.50;;
5465;SDS011;2755;50.728;7.108;2022-12-31T17:55:39;8.07;;;1.60;;
5465;SDS011;2755;50.728;7.108;2022-12-31T17:58:06;3.03;;;1.03;;
5465;SDS011;2755;50.728;7.108;2022-12-31T18:00:37;2.47;;;1.47;;
5465;SDS011;2755;50.728;7.108;2022-12-31T18:03:03;3.33;;;1.40;;
5465;SDS011;2755;50.728;7.108;2022-12-31T18:05:28;7.77;;;1.77;;
5465;SDS011;2755;50.728;7.108;2022-12-31T18:07:54;2.77;;;1.60;;
5465;SDS011;2755;50.728;7.108;2022-12-31T18:10:20;6.40;;;1.60;;
5465;SDS011;2755;50.728;7.108;2022-12-31T18:12:48;6.70;;;1.90;;
5465;SDS011;2755;50.728;7.108;2022-12-31T18:15:18;5.70;;;2.00;;
5465;SDS011;2755;50.728;7.108;2022-12-31T18:17:48;4.40;;;1.47;;
5465;SDS011;2755;50.728;7.108;2022-12-31T18:20:14;2.80;;;1.50;;
5465;SDS011;2755;50.728;7.108;2022-12-31T18:22:40;3.37;;;1.20;;
5465;SDS011;2755;50.728;7.108;2022-12-31T18:25:09;5.20;;;1.47;;
5465;SDS011;2755;50.728;7.108;2022-12-31T18:27:43;3.60;;;2.50;;
5465;SDS011;2755;50.728;7.108;2022-12-31T18:30:09;2.73;;;1.43;;
5465;SDS011;2755;50.728;7.108;2022-12-31T18:32:36;4.13;;;2.00;;
5465;SDS011;2755;50.728;7.108;2022-12-31T18:35:02;2.30;;;1.10;;
5465;SDS011;2755;50.728;7.108;2022-12-31T18:37:28;4.73;;;1.57;;
5465;SDS011;2755;50.728;7.108;2022-12-31T18:39:55;4.43;;;1.30;;
5465;SDS011;2755;50.728;7.108;2022-12-31T18:42:21;2.37;;;1.10;;
5465;SDS011;2755;50.728;7.108;2022-12-31T18:44:49;2.13;;;1.20;;
5465;SDS011;2755;50.728;7.108;2022-12-31T18:47:16;3.67;;;1.60;;
5465;SDS011;2755;50.728;7.108;2022-12-31T18:49:43;2.13;;;1.13;;
5465;SDS011;2755;50.728;7.108;2022-12-31T18:52:13;4.17;;;1.43;;
5465;SDS011;2755;50.728;7.108;2022-12-31T18:54:40;3.23;;;1.23;;
5465;SDS011;2755;50.728;7.108;2022-12-31T18:57:06;3.10;;;1.90;;
5465;SDS011;2755;50.728;7.108;2022-12-31T18:59:34;5.20;;;1.50;;
5465;SDS011;2755;50.728;7.108;2022-12-31T19:02:00;6.60;;;1.70;;
5465;SDS011;2755;50.728;7.108;2022-12-31T19:04:26;8.77;;;1.67;;
5465;SDS011;2755;50.728;7.108;2022-12-31T19:06:52;4.30;;;2.10;;
5465;SDS011;2755;50.728;7.108;2022-12-31T19:09:17;3.63;;;1.50;;
5465;SDS011;2755;50.728;7.108;2022-12-31T19:11:43;3.80;;;1.30;;
5465;SDS011;2755;50.728;7.108;2022-12-31T19:14:13;4.93;;;1.50;;
5465;SDS011;2755;50.728;7.108;2022-12-31T19:16:42;2.07;;;1.20;;
5465;SDS011;2755;50.728;7.108;2022-12-31T19:19:09;6.00;;;1.43;;
5465;SDS011;2755;50.728;7.108;2022-12-31T19:21:35;2.27;;;1.30;;
5465;SDS011;2755;50.728;7.108;2022-12-31T19:24:01;2.77;;;1.27;;
5465;SDS011;2755;50.728;7.108;2022-12-31T19:26:27;2.63;;;1.20;;
5465;SDS011;2755;50.728;7.108;2022-12-31T19:28:53;3.37;;;1.83;;
5465;SDS011;2755;50.728;7.108;2022-12-31T19:31:19;3.00;;;1.17;;
5465;SDS011;2755;50.728;7.108;2022-12-31T19:33:45;3.60;;;1.60;;
5465;SDS011;2755;50.728;7.108;2022-12-31T19:36:14;3.13;;;1.43;;
5465;SDS011;2755;50.728;7.108;2022-12-31T19:38:41;2.60;;;1.20;;
5465;SDS011;2755;50.728;7.108;2022-12-31T19:41:15;3.33;;;1.30;;
5465;SDS011;2755;50.728;7.108;2022-12-31T19:43:43;5.30;;;1.33;;
5465;SDS011;2755;50.728;7.108;2022-12-31T19:46:13;4.43;;;1.47;;
5465;SDS011;2755;50.728;7.108;2022-12-31T19:48:40;4.97;;;1.23;;
5465;SDS011;2755;50.728;7.108;2022-12-31T19:51:07;2.80;;;1.40;;
5465;SDS011;2755;50.728;7.108;2022-12-31T19:53:38;1.67;;;1.20;;
5465;SDS011;2755;50.728;7.108;2022-12-31T19:56:04;4.03;;;1.60;;
5465;SDS011;2755;50.728;7.108;2022-12-31T19:58:30;5.63;;;1.87;;
5465;SDS011;2755;50.728;7.108;2022-12-31T20:00:56;4.00;;;1.50;;